createdAt,value
2019-04-14T00:01:23.775Z,99245.97
2019-04-14T00:04:16.110Z,99250.45
2019-04-14T00:06:46.283Z,99248.36
2019-04-14T00:09:18.411Z,99244.20
2019-04-14T00:11:48.121Z,99246.36
2019-04-14T00:14:18.464Z,99245.97
2019-04-14T00:16:47.259Z,99246.97
2019-04-14T00:19:17.151Z,99245.94
2019-04-14T00:21:46.127Z,99247.13
2019-04-14T00:24:16.187Z,99249.05
2019-04-14T00:26:45.127Z,99247.98
2019-04-14T00:29:15.164Z,99245.39
2019-04-14T00:31:43.934Z,99250.89
2019-04-14T00:34:26.759Z,99245.63
2019-04-14T00:37:25.102Z,99242.30
2019-04-14T00:39:57.568Z,99239.59
2019-04-14T00:42:36.460Z,99242.64
2019-04-14T00:45:11.540Z,99245.53
2019-04-14T00:47:55.697Z,99242.91
2019-04-14T00:50:14.773Z,99240.59
2019-04-14T00:52:43.721Z,99243.05
2019-04-14T00:55:13.916Z,99246.34
2019-04-14T00:57:42.714Z,99253.77
2019-04-14T01:00:12.789Z,99248.91
2019-04-14T01:02:42.950Z,99242.80
2019-04-14T01:05:13.096Z,99248.19
2019-04-14T01:10:02.258Z,99255.39
2019-04-14T01:12:32.045Z,99247.85
2019-04-14T01:15:00.923Z,99247.71
2019-04-14T01:17:30.815Z,99249.59
2019-04-14T01:19:59.823Z,99257.20
2019-04-14T01:22:29.218Z,99256.69
2019-04-14T01:24:57.968Z,99256.31
2019-04-14T01:27:27.789Z,99261.28
2019-04-14T01:29:56.583Z,99255.83
2019-04-14T01:32:26.125Z,99258.20
2019-04-14T01:34:55.950Z,99262.20
2019-04-14T01:37:26.818Z,99261.90
2019-04-14T01:39:56.676Z,99261.64
2019-04-14T01:42:26.693Z,99264.00
2019-04-14T01:44:55.507Z,99260.48
2019-04-14T01:47:24.887Z,99260.39
2019-04-14T01:49:53.733Z,99259.34
2019-04-14T01:52:29.598Z,99254.22
2019-04-14T01:55:26.909Z,99260.13
2019-04-14T01:58:14.405Z,99258.38
2019-04-14T02:01:21.637Z,99265.97
2019-04-14T02:03:50.523Z,99263.80
2019-04-14T02:06:20.182Z,99274.03
2019-04-14T02:08:50.130Z,99277.97
2019-04-14T02:11:19.040Z,99277.39
2019-04-14T02:13:48.571Z,99286.23
2019-04-14T02:16:25.979Z,99282.50
2019-04-14T02:18:50.659Z,99275.15
2019-04-14T02:21:19.462Z,99280.52
2019-04-14T02:23:49.683Z,99278.45
2019-04-14T02:26:19.762Z,99276.34
2019-04-14T02:28:48.889Z,99278.96
2019-04-14T02:31:35.573Z,99275.89
2019-04-14T02:34:21.861Z,99267.77
2019-04-14T02:36:46.338Z,99269.28
2019-04-14T02:42:07.169Z,99273.28
2019-04-14T02:49:18.887Z,99272.55
2019-04-14T02:51:53.358Z,99274.63
2019-04-14T02:54:23.083Z,99273.01
2019-04-14T02:56:52.165Z,99271.33
2019-04-14T02:59:22.643Z,99274.26
2019-04-14T03:02:09.738Z,99272.09
2019-04-14T03:04:21.672Z,99273.18
2019-04-14T03:06:56.378Z,99272.58
2019-04-14T03:09:32.125Z,99272.34
2019-04-14T03:11:54.972Z,99274.97
2019-04-14T03:20:37.266Z,99280.03
2019-04-14T03:22:57.057Z,99285.71
2019-04-14T03:25:49.253Z,99288.55
2019-04-14T03:28:33.922Z,99278.08
2019-04-14T03:41:12.341Z,99295.62
2019-04-14T03:43:30.963Z,99287.56
2019-04-14T03:46:12.068Z,99291.97
2019-04-14T03:51:13.625Z,99292.42
2019-04-14T03:53:45.809Z,99296.16
2019-04-14T03:56:18.046Z,99292.37
2019-04-14T03:58:46.856Z,99288.02
2019-04-14T04:01:15.621Z,99283.89
2019-04-14T04:03:45.506Z,99284.09
2019-04-14T04:06:14.573Z,99290.03
2019-04-14T04:08:44.118Z,99288.73
2019-04-14T04:11:13.034Z,99288.04
2019-04-14T04:13:41.844Z,99288.50
2019-04-14T04:16:20.257Z,99294.42
2019-04-14T04:18:57.892Z,99296.67
2019-04-14T04:21:50.943Z,99303.64
2019-04-14T04:24:37.026Z,99300.80
2019-04-14T04:27:18.660Z,99300.73
2019-04-14T04:30:08.645Z,99299.83
2019-04-14T04:32:55.853Z,99302.50
2019-04-14T04:35:37.139Z,99296.47
2019-04-14T04:38:13.734Z,99299.59
2019-04-14T04:40:42.558Z,99298.29
2019-04-14T04:43:12.472Z,99297.48
2019-04-14T04:45:41.255Z,99296.47
2019-04-14T04:48:10.879Z,99294.99
2019-04-14T04:50:40.934Z,99298.75
2019-04-14T04:53:09.765Z,99303.00
2019-04-14T04:55:39.502Z,99297.31
2019-04-14T04:58:08.248Z,99298.58
2019-04-14T05:00:37.326Z,99300.40
2019-04-14T05:03:06.178Z,99301.00
2019-04-14T05:06:09.157Z,99306.25
2019-04-14T05:08:39.747Z,99305.73
2019-04-14T05:11:20.691Z,99308.52
2019-04-14T05:13:51.103Z,99310.57
2019-04-14T05:16:20.014Z,99315.13
2019-04-14T05:18:49.034Z,99311.53
2019-04-14T05:21:17.787Z,99320.89
2019-04-14T05:23:47.389Z,99321.50
2019-04-14T05:26:17.702Z,99327.41
2019-04-14T05:28:46.583Z,99325.83
2019-04-14T05:31:16.367Z,99326.97
2019-04-14T05:33:45.213Z,99327.34
2019-04-14T05:36:15.024Z,99326.89
2019-04-14T05:38:44.928Z,99333.23
2019-04-14T05:41:13.996Z,99332.47
2019-04-14T05:43:48.761Z,99329.59
2019-04-14T05:46:14.246Z,99327.42
2019-04-14T05:48:43.092Z,99332.92
2019-04-14T05:51:12.978Z,99334.33
2019-04-14T05:53:42.220Z,99334.11
2019-04-14T05:56:12.174Z,99341.64
2019-04-14T05:58:41.135Z,99342.25
2019-04-14T06:01:11.343Z,99343.97
2019-04-14T06:03:40.778Z,99339.45
2019-04-14T06:06:09.766Z,99338.45
2019-04-14T06:08:38.530Z,99344.23
2019-04-14T06:11:07.241Z,99338.92
2019-04-14T06:13:35.996Z,99344.95
2019-04-14T06:16:04.932Z,99343.69
2019-04-14T06:18:33.676Z,99341.20
2019-04-14T06:21:08.557Z,99348.03
2019-04-14T06:23:39.164Z,99349.61
2019-04-14T06:26:08.237Z,99352.02
2019-04-14T06:28:37.053Z,99350.97
2019-04-14T06:31:19.594Z,99347.06
2019-04-14T06:34:00.814Z,99352.38
2019-04-14T06:36:47.331Z,99350.50
2019-04-14T06:39:19.652Z,99353.45
2019-04-14T06:41:48.401Z,99350.13
2019-04-14T06:44:17.313Z,99347.67
2019-04-14T06:46:46.251Z,99353.72
2019-04-14T06:49:15.036Z,99356.95
2019-04-14T06:51:47.622Z,99353.41
2019-04-14T06:54:16.487Z,99355.92
2019-04-14T06:56:45.495Z,99359.33
2019-04-14T06:59:16.756Z,99355.50
2019-04-14T07:01:46.143Z,99360.77
2019-04-14T07:04:15.130Z,99364.30
2019-04-14T07:06:43.870Z,99359.14
2019-04-14T07:09:20.228Z,99355.11
2019-04-14T07:11:49.012Z,99360.02
2019-04-14T07:14:17.752Z,99358.98
2019-04-14T07:16:46.603Z,99358.55
2019-04-14T07:19:15.769Z,99364.19
2019-04-14T07:21:44.757Z,99359.67
2019-04-14T07:24:14.773Z,99363.72
2019-04-14T07:26:48.748Z,99363.14
2019-04-14T07:29:17.684Z,99365.36
2019-04-14T07:32:05.707Z,99363.84
2019-04-14T07:34:54.273Z,99371.59
2019-04-14T07:37:34.653Z,99370.59
2019-04-14T07:40:12.909Z,99372.47
2019-04-14T07:42:51.685Z,99371.94
2019-04-14T07:45:25.045Z,99375.03
2019-04-14T07:48:02.876Z,99374.27
2019-04-14T07:50:49.918Z,99375.27
2019-04-14T07:53:56.088Z,99372.42
2019-04-14T07:56:43.903Z,99363.88
2019-04-14T07:59:40.972Z,99359.61
2019-04-14T08:02:16.140Z,99362.17
2019-04-14T08:04:58.927Z,99363.02
2019-04-14T08:07:36.917Z,99357.66
2019-04-14T08:10:07.591Z,99358.53
2019-04-14T08:12:36.555Z,99363.58
2019-04-14T08:15:07.484Z,99361.53
2019-04-14T08:17:36.186Z,99364.89
2019-04-14T08:20:05.779Z,99367.34
2019-04-14T08:22:34.673Z,99366.38
2019-04-14T08:25:04.507Z,99369.85
2019-04-14T08:27:34.598Z,99372.24
2019-04-14T08:30:03.663Z,99371.14
2019-04-14T08:32:32.476Z,99371.66
2019-04-14T08:35:01.456Z,99369.73
2019-04-14T08:37:30.468Z,99373.75
2019-04-14T08:39:59.470Z,99369.87
2019-04-14T08:42:47.355Z,99363.08
2019-04-14T08:45:34.098Z,99369.30
2019-04-14T08:48:20.305Z,99369.19
2019-04-14T08:50:55.697Z,99365.51
2019-04-14T08:53:34.573Z,99364.61
2019-04-14T08:56:19.298Z,99365.77
2019-04-14T08:59:01.978Z,99367.89
2019-04-14T09:01:36.357Z,99366.40
2019-04-14T09:04:33.717Z,99360.66
2019-04-14T09:07:33.449Z,99363.45
2019-04-14T09:10:06.977Z,99356.48
2019-04-14T09:12:37.938Z,99359.86
2019-04-14T09:15:11.502Z,99358.17
2019-04-14T09:17:40.677Z,99357.62
2019-04-14T09:20:10.055Z,99353.84
2019-04-14T09:22:38.863Z,99356.31
2019-04-14T09:25:08.337Z,99363.97
2019-04-14T09:27:37.362Z,99359.83
2019-04-14T09:30:07.224Z,99362.55
2019-04-14T09:32:36.321Z,99360.97
2019-04-14T09:35:05.710Z,99361.84
2019-04-14T09:37:34.532Z,99362.77
2019-04-14T09:40:03.571Z,99360.84
2019-04-14T09:42:32.644Z,99358.98
2019-04-14T09:45:01.695Z,99358.61
2019-04-14T09:47:30.680Z,99360.00
2019-04-14T09:49:59.863Z,99357.66
2019-04-14T09:52:28.808Z,99360.52
2019-04-14T09:54:57.962Z,99359.58
2019-04-14T09:57:26.857Z,99358.80
2019-04-14T09:59:55.778Z,99351.23
2019-04-14T10:02:26.313Z,99356.91
2019-04-14T10:04:55.327Z,99355.97
2019-04-14T10:07:25.475Z,99349.71
2019-04-14T10:09:54.430Z,99357.24
2019-04-14T10:12:25.623Z,99357.34
2019-04-14T10:14:54.484Z,99360.23
2019-04-14T10:17:32.914Z,99356.79
2019-04-14T10:20:03.228Z,99363.11
2019-04-14T10:22:34.118Z,99361.17
2019-04-14T10:25:02.871Z,99366.73
2019-04-14T10:27:32.090Z,99360.52
2019-04-14T10:30:01.105Z,99361.27
2019-04-14T10:32:29.945Z,99362.22
2019-04-14T10:34:58.783Z,99359.19
2019-04-14T10:37:27.904Z,99363.25
2019-04-14T10:39:57.006Z,99362.04
2019-04-14T10:42:26.620Z,99365.06
2019-04-14T10:44:55.802Z,99363.36
2019-04-14T10:47:26.015Z,99361.65
2019-04-14T10:49:55.224Z,99368.45
2019-04-14T10:52:25.537Z,99365.44
2019-04-14T10:55:14.010Z,99369.20
2019-04-14T11:02:09.275Z,99378.27
2019-04-14T11:04:40.308Z,99381.08
2019-04-14T11:07:13.778Z,99381.97
2019-04-14T11:09:49.992Z,99380.03
2019-04-14T11:12:18.902Z,99386.38
2019-04-14T11:14:48.778Z,99388.36
2019-04-14T11:17:17.970Z,99392.33
2019-04-14T11:19:48.560Z,99392.70
2019-04-14T11:22:17.324Z,99396.23
2019-04-14T11:24:46.037Z,99391.75
2019-04-14T11:27:15.080Z,99393.13
2019-04-14T11:29:43.857Z,99393.59
2019-04-14T11:32:42.234Z,99398.05
2019-04-14T11:35:24.402Z,99395.81
2019-04-14T11:38:21.531Z,99404.17
2019-04-14T11:40:52.893Z,99404.92
2019-04-14T11:43:21.842Z,99409.42
2019-04-14T11:45:51.189Z,99414.10
2019-04-14T11:48:21.466Z,99418.86
2019-04-14T11:50:53.368Z,99420.09
2019-04-14T11:53:22.105Z,99424.38
2019-04-14T11:55:52.447Z,99429.46
2019-04-14T11:58:21.263Z,99432.66
2019-04-14T12:01:09.230Z,99436.19
2019-04-14T12:03:46.204Z,99438.13
2019-04-14T12:06:24.221Z,99441.16
2019-04-14T12:09:13.482Z,99438.52
2019-04-14T12:11:42.973Z,99449.12
2019-04-14T12:14:12.026Z,99449.47
2019-04-14T12:16:46.295Z,99454.54
2019-04-14T12:19:17.173Z,99451.43
2019-04-14T12:21:48.516Z,99451.89
2019-04-14T12:24:18.738Z,99458.95
2019-04-14T12:26:47.679Z,99461.80
2019-04-14T12:29:18.979Z,99455.82
2019-04-14T12:31:50.849Z,99468.92
2019-04-14T12:34:19.734Z,99469.34
2019-04-14T12:36:56.029Z,99466.89
2019-04-14T12:39:28.359Z,99477.66
2019-04-14T12:42:28.818Z,99468.13
2019-04-14T12:45:23.435Z,99460.33
2019-04-14T12:48:09.933Z,99468.91
2019-04-14T12:50:43.314Z,99469.27
2019-04-14T12:53:12.065Z,99461.08
2019-04-14T12:55:41.200Z,99470.31
2019-04-14T12:58:16.396Z,99466.48
2019-04-14T13:00:51.446Z,99464.27
2019-04-14T13:03:21.278Z,99463.48
2019-04-14T13:05:50.166Z,99471.72
2019-04-14T13:08:19.081Z,99472.87
2019-04-14T13:10:48.565Z,99464.80
2019-04-14T13:13:30.992Z,99462.69
2019-04-14T13:16:00.005Z,99464.42
2019-04-14T13:18:29.111Z,99459.09
2019-04-14T13:20:59.184Z,99457.90
2019-04-14T13:23:31.999Z,99462.13
2019-04-14T13:26:01.041Z,99464.39
2019-04-14T13:28:30.338Z,99465.42
2019-04-14T13:31:01.170Z,99470.48
2019-04-14T13:33:37.157Z,99462.63
2019-04-14T13:36:09.270Z,99458.67
2019-04-14T13:38:38.167Z,99459.95
2019-04-14T13:41:08.955Z,99453.82
2019-04-14T13:43:45.028Z,99459.91
2019-04-14T13:46:16.877Z,99457.20
2019-04-14T13:48:48.751Z,99464.19
2019-04-14T13:51:17.849Z,99458.84
2019-04-14T13:53:46.954Z,99462.31
2019-04-14T13:56:16.141Z,99455.93
2019-04-14T13:58:47.962Z,99461.66
2019-04-14T14:01:18.554Z,99457.11
2019-04-14T14:03:51.742Z,99455.42
2019-04-14T14:06:20.666Z,99452.30
2019-04-14T14:08:49.555Z,99449.86
2019-04-14T14:11:39.349Z,99446.45
2019-04-14T14:14:14.197Z,99438.72
2019-04-14T14:17:01.986Z,99447.61
2019-04-14T14:19:48.904Z,99451.72
2019-04-14T14:22:31.660Z,99442.70
2019-04-14T14:25:06.061Z,99447.87
2019-04-14T14:27:37.071Z,99449.95
2019-04-14T14:30:06.743Z,99449.39
2019-04-14T14:32:36.586Z,99445.34
2019-04-14T14:35:07.362Z,99444.59
2019-04-14T14:37:39.001Z,99446.56
2019-04-14T14:40:08.523Z,99443.33
2019-04-14T14:42:37.409Z,99441.94
2019-04-14T14:45:16.223Z,99443.63
2019-04-14T14:47:51.665Z,99447.29
2019-04-14T14:50:29.195Z,99441.72
2019-04-14T14:53:11.395Z,99441.94
2019-04-14T14:55:32.009Z,99441.39
2019-04-14T14:58:01.052Z,99442.89
2019-04-14T15:00:34.231Z,99442.69
2019-04-14T15:03:03.389Z,99446.16
2019-04-14T15:05:32.351Z,99445.21
2019-04-14T15:08:01.384Z,99444.86
2019-04-14T15:10:30.178Z,99442.98
2019-04-14T15:13:01.031Z,99450.13
2019-04-14T15:15:32.937Z,99451.44
2019-04-14T15:18:04.921Z,99450.44
2019-04-14T15:20:34.245Z,99445.13
2019-04-14T15:23:03.190Z,99446.47
2019-04-14T15:25:32.333Z,99445.06
2019-04-14T15:28:01.102Z,99447.62
2019-04-14T15:30:30.022Z,99456.95
2019-04-14T15:32:58.934Z,99458.31
2019-04-14T15:35:27.748Z,99462.36
2019-04-14T15:37:56.615Z,99459.64
2019-04-14T15:40:25.448Z,99464.28
2019-04-14T15:42:54.278Z,99460.02
2019-04-14T15:45:23.106Z,99464.06
2019-04-14T15:47:53.185Z,99468.70
2019-04-14T15:50:44.467Z,99473.73
2019-04-14T15:53:13.399Z,99469.86
2019-04-14T15:55:42.243Z,99471.06
2019-04-14T15:58:17.906Z,99477.14
2019-04-14T16:01:11.466Z,99471.44
2019-04-14T16:03:51.084Z,99469.91
2019-04-14T16:06:38.314Z,99470.11
2019-04-14T16:09:30.350Z,99465.72
2019-04-14T16:12:20.207Z,99471.70
2019-04-14T16:14:56.619Z,99469.41
2019-04-14T16:17:35.701Z,99468.51
2019-04-14T16:20:11.106Z,99469.95
2019-04-14T16:22:41.024Z,99479.46
2019-04-14T16:25:10.041Z,99477.49
2019-04-14T16:28:28.971Z,99475.37
2019-04-14T16:31:16.762Z,99474.90
2019-04-14T16:34:10.430Z,99481.03
2019-04-14T16:36:39.898Z,99474.34
2019-04-14T16:39:08.742Z,99477.83
2019-04-14T16:41:37.729Z,99473.66
2019-04-14T16:44:06.644Z,99481.72
2019-04-14T16:46:35.392Z,99482.19
2019-04-14T16:49:04.193Z,99478.94
2019-04-14T16:51:38.752Z,99484.44
2019-04-14T16:54:18.336Z,99487.30
2019-04-14T16:57:03.263Z,99491.00
2019-04-14T16:59:32.023Z,99494.38
2019-04-14T17:02:10.913Z,99493.01
2019-04-14T17:04:31.547Z,99494.11
2019-04-14T17:07:00.420Z,99497.00
2019-04-14T17:09:29.287Z,99494.66
2019-04-14T17:11:59.419Z,99495.09
2019-04-14T17:14:36.059Z,99507.28
2019-04-14T17:17:11.874Z,99502.12
2019-04-14T17:20:02.741Z,99501.02
2019-04-14T17:22:39.476Z,99500.84
2019-04-14T17:25:27.534Z,99503.95
2019-04-14T17:28:11.609Z,99510.02
2019-04-14T17:31:02.312Z,99510.70
2019-04-14T17:33:49.516Z,99517.72
2019-04-14T17:36:40.215Z,99508.30
2019-04-14T17:39:24.978Z,99505.66
2019-04-14T17:42:15.963Z,99514.44
2019-04-14T17:45:01.028Z,99522.62
2019-04-14T17:47:39.689Z,99531.53
2019-04-14T17:50:39.801Z,99525.26
2019-04-14T17:53:07.438Z,99527.13
2019-04-14T17:55:55.330Z,99538.82
2019-04-14T17:58:33.380Z,99541.16
2019-04-14T18:01:12.157Z,99547.22
2019-04-14T18:03:54.611Z,99548.41
2019-04-14T18:06:37.109Z,99552.12
2019-04-14T18:09:13.457Z,99562.94
2019-04-14T18:12:02.435Z,99555.48
2019-04-14T18:14:47.942Z,99560.30
2019-04-14T18:17:27.895Z,99560.30
2019-04-14T18:20:01.061Z,99564.09
2019-04-14T18:22:29.842Z,99562.69
2019-04-14T18:24:58.626Z,99564.64
2019-04-14T18:27:27.368Z,99568.82
2019-04-14T18:30:06.622Z,99566.65
2019-04-14T18:32:47.153Z,99569.55
2019-04-14T18:35:22.359Z,99574.05
2019-04-14T18:38:08.996Z,99574.83
2019-04-14T18:40:46.560Z,99576.36
2019-04-14T18:43:32.171Z,99578.51
2019-04-14T18:46:07.379Z,99583.05
2019-04-14T18:48:41.031Z,99581.48
2019-04-14T18:51:20.276Z,99586.22
2019-04-14T18:54:08.393Z,99589.91
2019-04-14T18:56:56.162Z,99593.79
2019-04-14T18:59:42.667Z,99596.32
2019-04-14T19:02:13.453Z,99599.60
2019-04-14T19:04:42.328Z,99600.61
2019-04-14T19:07:11.573Z,99603.95
2019-04-14T19:09:40.600Z,99610.55
2019-04-14T19:12:33.929Z,99607.44
2019-04-14T19:15:17.482Z,99614.13
2019-04-14T19:17:55.638Z,99609.39
2019-04-14T19:20:24.498Z,99613.14
2019-04-14T19:22:53.251Z,99610.17
2019-04-14T19:25:21.983Z,99614.82
2019-04-14T19:27:51.072Z,99607.61
2019-04-14T19:30:20.174Z,99604.88
2019-04-14T19:32:48.963Z,99613.20
2019-04-14T19:35:17.706Z,99606.98
2019-04-14T19:37:46.629Z,99607.91
2019-04-14T19:40:15.687Z,99612.02
2019-04-14T19:42:44.506Z,99607.06
2019-04-14T19:45:13.533Z,99612.73
2019-04-14T19:47:42.272Z,99608.77
2019-04-14T19:50:11.819Z,99609.17
2019-04-14T19:52:40.547Z,99613.05
2019-04-14T19:55:19.918Z,99619.66
2019-04-14T19:57:39.979Z,99618.42
2019-04-14T20:00:09.017Z,99620.98
2019-04-14T20:02:37.943Z,99619.36
2019-04-14T20:05:07.016Z,99621.28
2019-04-14T20:07:35.780Z,99622.14
2019-04-14T20:10:05.982Z,99625.72
2019-04-14T20:12:34.802Z,99627.34
2019-04-14T20:15:03.622Z,99626.94
2019-04-14T20:17:54.413Z,99632.30
2019-04-14T20:20:37.996Z,99633.09
2019-04-14T20:23:37.767Z,99630.20
2019-04-14T20:26:25.719Z,99632.69
2019-04-14T20:29:13.531Z,99628.81
2019-04-14T20:31:55.089Z,99634.86
2019-04-14T20:34:23.997Z,99627.41
2019-04-14T20:36:52.769Z,99623.69
2019-04-14T20:39:22.071Z,99629.82
2019-04-14T20:41:50.878Z,99629.97
2019-04-14T20:44:19.675Z,99627.55
2019-04-14T20:46:48.624Z,99627.87
2019-04-14T20:49:17.372Z,99629.97
2019-04-14T20:51:46.208Z,99624.12
2019-04-14T20:54:15.150Z,99627.57
2019-04-14T20:56:43.935Z,99625.92
2019-04-14T20:59:12.709Z,99625.53
2019-04-14T21:01:44.690Z,99625.23
2019-04-14T21:04:22.762Z,99620.33
2019-04-14T21:07:09.345Z,99623.66
2019-04-14T21:09:44.031Z,99618.63
2019-04-14T21:12:38.389Z,99623.83
2019-04-14T21:15:22.305Z,99629.11
2019-04-14T21:18:09.055Z,99626.17
2019-04-14T21:21:03.140Z,99630.82
2019-04-14T21:23:51.058Z,99635.17
2019-04-14T21:26:32.079Z,99636.50
2019-04-14T21:29:28.974Z,99633.60
2019-04-14T21:32:04.119Z,99637.05
2019-04-14T21:34:46.647Z,99632.22
2019-04-14T21:37:25.677Z,99632.39
2019-04-14T21:40:12.540Z,99635.42
2019-04-14T21:42:42.117Z,99633.00
2019-04-14T21:45:11.188Z,99635.42
2019-04-14T21:47:39.930Z,99637.20
2019-04-14T21:50:09.140Z,99638.97
2019-04-14T21:52:43.197Z,99645.83
2019-04-14T21:55:12.108Z,99644.03
2019-04-14T21:57:59.868Z,99647.38
2019-04-14T22:01:42.056Z,99649.38
2019-04-14T22:04:28.697Z,99643.66
2019-04-14T22:06:59.675Z,99644.42
2019-04-14T22:09:32.658Z,99647.67
2019-04-14T22:12:03.442Z,99647.84
2019-04-14T22:14:32.188Z,99654.67
2019-04-14T22:17:00.945Z,99651.03
2019-04-14T22:19:30.226Z,99654.75
2019-04-14T22:21:59.000Z,99658.03
2019-04-14T22:24:27.757Z,99658.63
2019-04-14T22:26:56.517Z,99662.68
2019-04-14T22:29:25.256Z,99672.40
2019-04-14T22:31:54.009Z,99662.84
2019-04-14T22:34:22.812Z,99663.53
2019-04-14T22:36:51.537Z,99668.98
2019-04-14T22:39:20.567Z,99674.36
2019-04-14T22:41:49.317Z,99673.72
2019-04-14T22:44:18.083Z,99673.11
2019-04-14T22:46:47.009Z,99672.17
2019-04-14T22:49:15.782Z,99675.98
2019-04-14T22:51:44.526Z,99673.25
2019-04-14T22:54:13.320Z,99678.80
2019-04-14T22:56:42.113Z,99669.67
2019-04-14T22:59:10.895Z,99676.28
2019-04-14T23:01:42.836Z,99677.14
2019-04-14T23:04:30.792Z,99675.98
2019-04-14T23:07:11.463Z,99675.69
2019-04-14T23:09:47.063Z,99681.52
2019-04-14T23:12:21.063Z,99680.86
2019-04-14T23:15:00.482Z,99684.30
2019-04-14T23:17:57.317Z,99684.23
2019-04-14T23:20:43.932Z,99692.02
2019-04-14T23:23:31.882Z,99691.92
2019-04-14T23:26:00.722Z,99687.95
2019-04-14T23:28:29.572Z,99692.77
2019-04-14T23:31:01.457Z,99688.50
2019-04-14T23:33:28.899Z,99686.88
2019-04-14T23:35:57.665Z,99683.61
2019-04-14T23:38:26.415Z,99688.34
2019-04-14T23:40:55.190Z,99685.78
2019-04-14T23:43:26.763Z,99693.41
2019-04-14T23:45:55.955Z,99688.42
2019-04-14T23:48:24.703Z,99683.30
2019-04-14T23:50:53.442Z,99688.97
2019-04-14T23:53:22.605Z,99685.01
2019-04-14T23:55:52.059Z,99682.06
2019-04-14T23:58:20.870Z,99683.08
